createdAt,value
2018-04-19T00:02:09.148Z,22.37
2018-04-19T00:04:36.639Z,21.10
2018-04-19T00:07:04.170Z,21.70
2018-04-19T00:09:32.038Z,20.90
2018-04-19T00:12:00.432Z,21.83
2018-04-19T00:14:27.958Z,22.13
2018-04-19T00:16:55.923Z,21.73
2018-04-19T00:19:23.418Z,21.60
2018-04-19T00:21:51.258Z,22.30
2018-04-19T00:24:18.745Z,21.20
2018-04-19T00:26:46.245Z,20.77
2018-04-19T00:29:15.458Z,22.33
2018-04-19T00:31:42.952Z,22.30
2018-04-19T00:34:10.437Z,21.63
2018-04-19T00:36:38.239Z,22.53
2018-04-19T00:39:06.588Z,22.60
2018-04-19T00:41:34.092Z,22.07
2018-04-19T00:44:01.824Z,21.67
2018-04-19T00:46:30.236Z,22.33
2018-04-19T00:48:58.307Z,22.03
2018-04-19T00:51:25.941Z,22.80
2018-04-19T00:53:53.805Z,22.83
2018-04-19T00:56:21.793Z,23.93
2018-04-19T00:58:49.313Z,21.60
2018-04-19T01:01:16.831Z,21.00
2018-04-19T01:03:44.728Z,21.80
2018-04-19T01:06:12.330Z,22.83
2018-04-19T01:08:40.218Z,24.17
2018-04-19T01:11:07.708Z,22.20
2018-04-19T01:13:35.198Z,23.17
2018-04-19T01:16:03.031Z,22.37
2018-04-19T01:18:30.841Z,22.50
2018-04-19T01:20:58.329Z,23.43
2018-04-19T01:23:26.172Z,25.40
2018-04-19T01:25:54.051Z,24.13
2018-04-19T01:28:21.887Z,22.90
2018-04-19T01:30:49.620Z,23.23
2018-04-19T01:33:17.124Z,22.90
2018-04-19T01:35:56.451Z,23.60
2018-04-19T01:38:24.444Z,22.70
2018-04-19T01:40:52.983Z,23.73
2018-04-19T01:43:22.160Z,23.10
2018-04-19T01:45:49.698Z,23.37
2018-04-19T01:48:17.189Z,23.47
2018-04-19T01:50:45.381Z,23.20
2018-04-19T01:53:12.863Z,23.67
2018-04-19T01:55:40.362Z,22.70
2018-04-19T01:58:07.862Z,24.03
2018-04-19T02:00:36.268Z,24.03
2018-04-19T02:03:04.119Z,22.83
2018-04-19T02:05:31.776Z,24.30
2018-04-19T02:07:59.527Z,24.70
2018-04-19T02:10:27.027Z,24.70
2018-04-19T02:12:54.845Z,26.43
2018-04-19T02:15:22.522Z,25.20
2018-04-19T02:17:50.246Z,24.37
2018-04-19T02:20:18.136Z,26.13
2018-04-19T02:22:46.397Z,26.23
2018-04-19T02:25:13.898Z,25.13
2018-04-19T02:27:41.656Z,24.50
2018-04-19T02:30:09.334Z,25.47
2018-04-19T02:32:37.198Z,23.97
2018-04-19T02:35:04.896Z,25.37
2018-04-19T02:37:33.005Z,24.77
2018-04-19T02:40:01.273Z,23.63
2018-04-19T02:42:29.704Z,24.40
2018-04-19T02:44:57.353Z,24.20
2018-04-19T02:47:24.992Z,25.80
2018-04-19T02:49:52.854Z,25.00
2018-04-19T02:52:20.373Z,24.53
2018-04-19T02:54:48.313Z,25.00
2018-04-19T02:57:15.799Z,24.50
2018-04-19T02:59:43.599Z,25.03
2018-04-19T03:02:11.874Z,23.90
2018-04-19T03:04:40.484Z,24.87
2018-04-19T03:07:08.149Z,24.10
2018-04-19T03:09:35.974Z,24.20
2018-04-19T03:12:03.460Z,25.20
2018-04-19T03:14:31.549Z,23.97
2018-04-19T03:16:59.106Z,21.97
2018-04-19T03:19:26.948Z,24.27
2018-04-19T03:21:55.336Z,24.50
2018-04-19T03:24:23.080Z,23.67
2018-04-19T03:26:51.325Z,23.07
2018-04-19T03:29:19.126Z,22.80
2018-04-19T03:31:46.628Z,24.87
2018-04-19T03:34:14.665Z,22.97
2018-04-19T03:36:42.156Z,23.97
2018-04-19T03:39:10.107Z,22.77
2018-04-19T03:41:37.951Z,23.50
2018-04-19T03:44:05.765Z,23.53
2018-04-19T03:46:33.294Z,24.30
2018-04-19T03:49:01.565Z,23.10
2018-04-19T03:51:29.055Z,24.30
2018-04-19T03:53:56.610Z,24.83
2018-04-19T03:56:24.076Z,23.97
2018-04-19T03:58:51.608Z,23.30
2018-04-19T04:01:19.213Z,23.20
2018-04-19T04:03:46.684Z,23.13
2018-04-19T04:06:15.277Z,23.13
2018-04-19T04:08:42.966Z,25.00
2018-04-19T04:11:10.808Z,22.87
2018-04-19T04:13:39.064Z,23.53
2018-04-19T04:16:06.876Z,23.33
2018-04-19T04:21:50.749Z,22.70
2018-04-19T04:24:18.581Z,22.43
2018-04-19T04:26:46.900Z,23.33
2018-04-19T04:29:14.847Z,24.93
2018-04-19T04:31:42.859Z,23.83
2018-04-19T04:34:10.964Z,24.07
2018-04-19T04:36:38.493Z,24.03
2018-04-19T04:39:05.999Z,24.37
2018-04-19T04:41:33.494Z,23.83
2018-04-19T04:44:01.001Z,23.47
2018-04-19T04:46:29.284Z,23.73
2018-04-19T04:48:56.818Z,23.23
2018-04-19T04:51:24.349Z,23.23
2018-04-19T04:53:52.208Z,23.97
2018-04-19T04:56:20.037Z,22.70
2018-04-19T04:58:47.509Z,22.30
2018-04-19T05:01:15.000Z,22.37
2018-04-19T05:03:42.619Z,23.07
2018-04-19T05:06:10.124Z,22.97
2018-04-19T05:08:37.646Z,23.10
2018-04-19T05:11:05.148Z,21.37
2018-04-19T05:13:32.948Z,21.77
2018-04-19T05:16:00.458Z,20.97
2018-04-19T05:18:28.277Z,21.33
2018-04-19T05:20:56.309Z,21.63
2018-04-19T05:23:24.014Z,21.57
2018-04-19T05:25:51.519Z,20.77
2018-04-19T05:28:19.316Z,20.47
2018-04-19T06:50:10.159Z,13.90
2018-04-19T06:52:38.105Z,13.10
2018-04-19T06:55:05.787Z,13.27
2018-04-19T06:57:33.439Z,12.47
2018-04-19T07:00:01.319Z,13.87
2018-04-19T07:02:28.949Z,12.93
2018-04-19T07:04:57.797Z,12.57
2018-04-19T07:07:25.318Z,11.40
2018-04-19T07:09:53.585Z,10.93
2018-04-19T07:12:21.096Z,11.60
2018-04-19T07:14:48.632Z,11.10
2018-04-19T07:17:16.360Z,10.40
2018-04-19T07:19:44.055Z,10.43
2018-04-19T07:22:12.129Z,10.93
2018-04-19T07:24:39.767Z,10.83
2018-04-19T07:27:07.947Z,11.07
2018-04-19T07:29:35.462Z,11.07
2018-04-19T07:32:03.276Z,10.87
2018-04-19T07:34:31.766Z,11.20
2018-04-19T07:36:59.275Z,10.50
2018-04-19T07:39:27.415Z,10.57
2018-04-19T07:41:55.338Z,10.60
2018-04-19T07:44:22.848Z,11.77
2018-04-19T07:46:50.690Z,11.30
2018-04-19T07:49:18.993Z,11.47
2018-04-19T07:51:47.594Z,10.60
2018-04-19T07:54:15.105Z,11.77
2018-04-19T07:56:42.972Z,11.90
2018-04-19T07:59:10.665Z,11.47
2018-04-19T08:01:38.268Z,11.00
2018-04-19T08:04:06.885Z,11.80
2018-04-19T08:06:34.488Z,11.07
2018-04-19T08:09:02.265Z,11.47
2018-04-19T08:11:30.485Z,12.17
2018-04-19T08:13:58.116Z,11.00
2018-04-19T08:16:26.016Z,11.00
2018-04-19T08:18:53.907Z,11.53
2018-04-19T08:21:21.411Z,11.43
2018-04-19T08:23:49.883Z,11.97
2018-04-19T08:26:17.409Z,11.50
2018-04-19T08:28:46.334Z,11.80
2018-04-19T08:31:15.282Z,11.07
2018-04-19T08:33:42.916Z,11.40
2018-04-19T08:36:11.678Z,11.60
2018-04-19T08:38:39.617Z,11.93
2018-04-19T08:41:07.213Z,11.70
2018-04-19T08:43:34.926Z,12.27
2018-04-19T08:46:03.439Z,12.23
2018-04-19T08:48:32.161Z,12.00
2018-04-19T08:50:59.988Z,12.80
2018-04-19T08:53:27.565Z,12.43
2018-04-19T08:55:56.945Z,12.30
2018-04-19T08:58:24.482Z,12.43
2018-04-19T09:00:52.148Z,13.70
2018-04-19T09:03:20.073Z,12.63
2018-04-19T09:05:47.600Z,12.03
2018-04-19T09:08:15.889Z,12.60
2018-04-19T09:10:43.772Z,12.77
2018-04-19T09:13:12.499Z,12.10
2018-04-19T09:15:39.989Z,11.63
2018-04-19T09:18:09.047Z,11.83
2018-04-19T09:20:36.582Z,13.20
2018-04-19T09:23:04.118Z,11.90
2018-04-19T09:25:31.669Z,12.30
2018-04-19T09:28:00.921Z,12.40
2018-04-19T09:30:28.450Z,11.63
2018-04-19T09:32:56.311Z,12.30
2018-04-19T09:35:24.386Z,12.10
2018-04-19T09:37:52.517Z,11.70
2018-04-19T09:40:20.053Z,11.67
2018-04-19T09:42:47.553Z,11.33
2018-04-19T09:45:15.314Z,11.57
2018-04-19T09:47:43.223Z,11.17
2018-04-19T09:50:10.720Z,11.63
2018-04-19T09:52:39.154Z,10.90
2018-04-19T09:55:06.640Z,11.30
2018-04-19T09:57:34.148Z,11.53
2018-04-19T10:00:02.585Z,11.23
2018-04-19T10:02:30.912Z,11.17
2018-04-19T10:05:03.954Z,10.63
2018-04-19T10:07:32.392Z,10.27
2018-04-19T10:10:00.288Z,10.57
2018-04-19T10:12:28.366Z,10.93
2018-04-19T10:14:56.084Z,10.40
2018-04-19T10:17:24.014Z,10.93
2018-04-19T10:19:51.972Z,10.27
2018-04-19T10:22:19.451Z,11.10
2018-04-19T10:24:47.509Z,11.33
2018-04-19T10:27:15.796Z,10.70
2018-04-19T10:29:43.717Z,10.93
2018-04-19T10:32:11.263Z,10.57
2018-04-19T10:34:38.771Z,10.47
2018-04-19T10:37:07.672Z,10.70
2018-04-19T10:39:36.503Z,10.33
2018-04-19T10:42:04.242Z,11.13
2018-04-19T13:44:55.953Z,6.30
2018-04-19T13:47:23.695Z,5.73
2018-04-19T13:49:51.865Z,5.60
2018-04-19T13:52:19.380Z,4.97
2018-04-19T13:54:47.331Z,4.90
2018-04-19T13:57:15.360Z,5.00
2018-04-19T13:59:42.852Z,5.07
2018-04-19T14:02:10.685Z,5.20
2018-04-19T14:04:38.187Z,5.47
2018-04-19T14:07:06.122Z,5.20
2018-04-19T14:09:33.646Z,4.80
2018-04-19T14:12:01.937Z,5.37
2018-04-19T14:14:30.219Z,6.03
2018-04-19T14:16:59.571Z,6.43
2018-04-19T14:19:27.104Z,7.03
2018-04-19T14:21:54.856Z,5.83
2018-04-19T14:24:22.349Z,5.53
2018-04-19T14:26:50.919Z,5.00
2018-04-19T14:29:18.440Z,5.20
2018-04-19T14:31:46.365Z,4.73
2018-04-19T14:34:14.805Z,5.60
2018-04-19T14:36:42.664Z,5.83
2018-04-19T14:39:10.156Z,5.40
2018-04-19T14:41:38.305Z,4.77
2018-04-19T14:44:05.834Z,4.60
2018-04-19T14:46:34.561Z,4.67
2018-04-19T14:49:02.069Z,4.47
2018-04-19T14:51:29.889Z,4.90
2018-04-19T14:53:57.398Z,3.90
2018-04-19T14:56:25.933Z,4.33
2018-04-19T14:58:53.442Z,4.00
2018-04-19T15:01:21.375Z,4.00
2018-04-19T15:03:48.872Z,4.20
2018-04-19T15:06:17.676Z,3.93
2018-04-19T15:08:45.286Z,3.60
2018-04-19T15:11:13.694Z,3.83
2018-04-19T15:13:41.565Z,4.00
2018-04-19T15:16:09.116Z,3.40
2018-04-19T15:18:38.583Z,3.53
2018-04-19T15:21:06.202Z,3.50
2018-04-19T15:23:34.126Z,3.43
2018-04-19T15:26:01.638Z,3.07
2018-04-19T15:28:30.781Z,3.30
2018-04-19T15:30:58.257Z,3.40
2018-04-19T15:33:29.357Z,3.20
2018-04-19T15:35:57.159Z,2.97
2018-04-19T15:38:25.097Z,3.50
2018-04-19T15:40:53.045Z,3.50
2018-04-19T15:43:20.645Z,3.90
2018-04-19T15:45:49.392Z,3.60
2018-04-19T15:48:17.012Z,3.70
2018-04-19T15:50:45.514Z,3.57
2018-04-19T15:53:13.492Z,3.30
2018-04-19T15:55:40.992Z,3.40
2018-04-19T15:58:09.617Z,3.40
2018-04-19T16:00:37.389Z,3.30
2018-04-19T16:03:05.322Z,2.80
2018-04-19T16:05:33.673Z,2.70
2018-04-19T16:08:02.515Z,2.90
2018-04-19T16:10:30.056Z,2.87
2018-04-19T16:12:57.849Z,2.97
2018-04-19T16:15:25.632Z,3.00
2018-04-19T16:17:53.135Z,2.80
2018-04-19T16:20:20.816Z,3.20
2018-04-19T16:22:49.345Z,2.87
2018-04-19T16:25:17.122Z,3.27
2018-04-19T16:27:45.812Z,3.40
2018-04-19T16:30:13.370Z,3.40
2018-04-19T16:32:40.847Z,3.03
2018-04-19T16:35:08.377Z,3.87
2018-04-19T16:37:36.955Z,4.17
2018-04-19T16:40:04.525Z,2.80
2018-04-19T16:42:33.663Z,2.70
2018-04-19T16:45:01.158Z,2.70
2018-04-19T16:47:29.489Z,2.23
2018-04-19T16:50:04.127Z,2.30
2018-04-19T16:52:33.097Z,2.63
2018-04-19T16:55:05.506Z,2.40
2018-04-19T16:57:33.374Z,2.90
2018-04-19T17:00:00.972Z,2.87
2018-04-19T17:02:29.700Z,2.90
2018-04-19T17:04:57.957Z,4.20
2018-04-19T17:07:26.201Z,2.93
2018-04-19T17:09:53.887Z,3.40
2018-04-19T17:12:21.392Z,2.43
2018-04-19T17:14:49.917Z,2.50
2018-04-19T17:17:17.662Z,2.20
2018-04-19T17:22:42.473Z,2.37
2018-04-19T17:25:10.353Z,2.30
2018-04-19T17:27:37.847Z,2.30
2018-04-19T17:30:06.851Z,2.30
2018-04-19T17:32:34.455Z,2.20
2018-04-19T17:35:02.012Z,2.60
2018-04-19T17:37:29.881Z,2.33
2018-04-19T17:39:57.718Z,2.80
2018-04-19T17:42:26.301Z,2.57
2018-04-19T17:44:53.822Z,2.23
2018-04-19T17:47:22.432Z,2.47
2018-04-19T17:49:49.920Z,2.30
2018-04-19T17:52:17.759Z,2.73
2018-04-19T17:54:46.748Z,2.30
2018-04-19T17:57:14.266Z,2.30
2018-04-19T17:59:42.002Z,2.60
2018-04-19T18:02:09.758Z,2.70
2018-04-19T18:04:37.294Z,2.60
2018-04-19T18:07:05.560Z,2.47
2018-04-19T18:09:33.472Z,2.70
2018-04-19T18:12:00.971Z,2.53
2018-04-19T18:14:28.989Z,2.63
2018-04-19T18:16:57.023Z,2.87
2018-04-19T18:19:24.520Z,2.77
2018-04-19T18:21:52.408Z,3.30
2018-04-19T18:24:19.925Z,3.17
2018-04-19T18:26:48.197Z,2.70
2018-04-19T18:29:16.802Z,2.63
2018-04-19T18:31:44.323Z,3.03
2018-04-19T18:34:12.112Z,2.80
2018-04-19T18:36:40.935Z,2.90
2018-04-19T18:39:08.442Z,2.87
2018-04-19T18:41:36.554Z,2.80
2018-04-19T18:44:04.222Z,2.67
2018-04-19T18:46:32.125Z,2.73
2018-04-19T18:49:01.476Z,2.80
2018-04-19T18:51:29.162Z,2.60
2018-04-19T18:53:56.813Z,2.60
2018-04-19T18:56:24.382Z,3.00
2018-04-19T18:58:52.944Z,3.13
2018-04-19T19:01:20.441Z,2.87
2018-04-19T19:03:47.966Z,3.13
2018-04-19T19:06:15.501Z,3.20
2018-04-19T19:08:43.828Z,3.20
2018-04-19T19:11:11.909Z,3.57
2018-04-19T19:13:39.538Z,3.50
2018-04-19T19:16:08.346Z,3.47
2018-04-19T19:18:47.759Z,4.20
2018-04-19T19:21:15.629Z,3.87
2018-04-19T19:23:45.802Z,4.13
2018-04-19T19:26:14.946Z,5.10
2018-04-19T19:28:43.013Z,4.80
2018-04-19T19:31:10.518Z,6.27
2018-04-19T19:33:38.033Z,5.53
2018-04-19T19:36:06.166Z,6.13
2018-04-19T19:38:33.731Z,5.20
2018-04-19T19:41:02.334Z,4.57
2018-04-19T19:43:29.822Z,5.00
2018-04-19T19:45:57.796Z,4.50
2018-04-19T19:48:25.350Z,4.40
2018-04-19T19:50:52.849Z,4.67
2018-04-19T19:53:20.412Z,4.10
2018-04-19T19:55:48.315Z,3.87
2018-04-19T19:58:16.175Z,3.57
2018-04-19T20:00:44.445Z,4.10
2018-04-19T20:03:11.943Z,3.93
2018-04-19T20:05:40.350Z,3.43
2018-04-19T20:08:09.061Z,3.33
2018-04-19T20:10:37.327Z,3.30
2018-04-19T20:13:05.637Z,4.00
2018-04-19T20:15:34.323Z,3.67
2018-04-19T20:18:02.149Z,3.77
2018-04-19T20:20:34.401Z,3.43
2018-04-19T20:23:01.950Z,3.63
2018-04-19T20:25:29.611Z,3.73
2018-04-19T20:27:57.132Z,3.97
2018-04-19T20:30:24.645Z,4.00
2018-04-19T20:32:53.596Z,3.90
2018-04-19T20:35:21.321Z,3.87
2018-04-19T20:37:50.488Z,3.70
2018-04-19T20:40:18.410Z,3.40
2018-04-19T20:42:45.935Z,3.30
2018-04-19T20:45:14.224Z,3.80
2018-04-19T20:47:41.870Z,3.80
2018-04-19T20:50:10.129Z,4.10
2018-04-19T20:52:37.692Z,3.83
2018-04-19T20:55:05.200Z,3.80
2018-04-19T20:57:33.049Z,4.00
2018-04-19T21:00:00.551Z,3.87
2018-04-19T21:02:28.360Z,4.20
2018-04-19T21:04:56.284Z,4.47
2018-04-19T21:07:23.791Z,3.87
2018-04-19T21:09:52.312Z,3.87
2018-04-19T21:12:19.838Z,4.57
2018-04-19T21:14:47.928Z,3.93
2018-04-19T21:17:15.433Z,4.10
2018-04-19T21:19:43.776Z,4.13
2018-04-19T21:22:11.396Z,4.33
2018-04-19T21:24:39.277Z,4.10
2018-04-19T21:27:06.893Z,4.20
2018-04-19T21:29:34.394Z,3.90
2018-04-19T21:32:01.881Z,4.27
2018-04-19T21:34:29.387Z,4.17
2018-04-19T21:36:57.637Z,4.17
2018-04-19T21:39:25.779Z,4.07
2018-04-19T21:41:53.317Z,4.30
2018-04-19T21:44:21.175Z,4.30
2018-04-19T21:46:49.079Z,4.20
2018-04-19T21:57:34.358Z,4.00
2018-04-19T22:00:01.856Z,4.10
2018-04-19T22:02:30.363Z,4.37
2018-04-19T22:04:58.105Z,5.00
2018-04-19T22:07:26.378Z,4.37
2018-04-19T22:09:54.888Z,4.00
2018-04-19T22:12:23.460Z,4.50
2018-04-19T22:14:50.949Z,4.20
2018-04-19T22:17:18.996Z,4.10
2018-04-19T22:19:46.502Z,4.27
2018-04-19T22:22:14.115Z,5.43
2018-04-19T22:24:41.984Z,4.57
2018-04-19T22:27:09.482Z,4.33
2018-04-19T22:29:36.984Z,4.10
2018-04-19T22:32:05.683Z,5.33
2018-04-19T22:34:34.084Z,4.43
2018-04-19T22:37:01.636Z,3.83
2018-04-19T22:39:29.445Z,3.83
2018-04-19T22:41:57.085Z,4.17
2018-04-19T22:44:25.029Z,3.83
2018-04-19T22:46:52.553Z,4.57
2018-04-19T22:49:20.061Z,5.23
2018-04-19T22:51:47.680Z,4.40
2018-04-19T22:54:15.767Z,5.50
2018-04-19T22:56:43.414Z,4.40
2018-04-19T22:59:10.907Z,4.27
2018-04-19T23:01:38.540Z,3.87
2018-04-19T23:04:06.440Z,3.87
2018-04-19T23:06:33.926Z,4.40
2018-04-19T23:09:01.755Z,4.13
2018-04-19T23:11:29.261Z,4.57
2018-04-19T23:13:57.665Z,4.67
2018-04-19T23:16:25.536Z,4.83
2018-04-19T23:18:53.023Z,5.17
2018-04-19T23:21:20.866Z,5.30
2018-04-19T23:23:48.769Z,4.80
2018-04-19T23:26:16.536Z,5.47
2018-04-19T23:28:44.323Z,4.93
2018-04-19T23:31:11.830Z,5.30
2018-04-19T23:33:39.348Z,5.33
2018-04-19T23:36:07.244Z,6.77
2018-04-19T23:38:34.726Z,5.13
2018-04-19T23:41:02.583Z,5.70
2018-04-19T23:43:30.448Z,5.27
2018-04-19T23:45:57.931Z,5.60
2018-04-19T23:48:26.052Z,5.40
2018-04-19T23:50:53.652Z,7.27
2018-04-19T23:53:21.141Z,5.70
2018-04-19T23:55:49.465Z,6.07
2018-04-19T23:58:17.144Z,6.37
